Pagina principale
METAR-TAF:

METAR-TAF

Aeroporti :

Berbérati, Repubblica Centrafricana

latitudine: 04-15N, longitudine: 015-48E, altezza: 582 m

Osservazione

Il bollettino è stato emesso 3 ore e 29 minuti fa, alle 10:00 UTC
Vento 4 kt da sud
Temperature 28°C
Umidità 58%
Pressione 1015 hPa
Visibilità 10 km o più
nessuna nube inferiore a 1500 m e nessun cumulonembo

METAR: FEFT 061000Z 18004KT CAVOK 28/19 Q1015

Ora: 14:29 (13:29 UTC)


TAF: mancante

Osservazioni e previsioni meteorologiche di più di 4000 aeroporti (messaggi METAR e TAF).

Le stazioni disponibili sono rappresentate dai dischi gialli e rossi sulla carta.

Puntare il mouse per vedere il nome della stazione.

Clicca sopra per visualizzare le osservazioni e previsioni meteorologiche.

Per cambiare la mappa : fare clic sui pulsanti verdi con una croce nera per ingrandire, il pulsante verde con un trattino per diminuire, o sulla freccia verde per le mappe adiacenti.


METAR-TAF: